Hana — 2BCV4 — position and weather

sailwx.info

Track history (hours):
 
Tides and Currents Weather Stations Pressure Air Temp Water Temp Dewpoint Dewpoint Depression Visibility Wind Speed Wind Dir Waves Ship Positions

Hana

Last reported at 2015-Jul-29 17:16 UTC. Time now 2015-Jul-30 20:13 UTC.
Position N 38°52' E 001°18'.

Length 42 m; draft 2.9 m.

Type: Pleasure craft. MMSI: 235065022.

Date/timePositionNaut miles runAvg speedWind from/ knotsBaromVisibWave heightAir tempDewpointWater temp
2015-Jul-29 17:16N 38°52' E 001°18'0 0.0
2015-Jul-29 16:17N 38°52' E 001°18'1 2.0
2015-Jul-29 15:32N 38°51' E 001°19'5 5.6
2015-Jul-29 14:33N 38°51' E 001°26'3 0.1
2015-Jul-27 19:18N 38°55' E 001°26'0 0.2
2015-Jul-27 18:32N 38°55' E 001°26'7 7.0
2015-Jul-27 17:33N 38°49' E 001°21'12 9.3
2015-Jul-27 16:16N 38°59' E 001°12'14 0.3
2015-Jul-25 15:31N 38°49' E 001°25'3 2.5
2015-Jul-25 14:11N 38°53' E 001°25'0 0.0
2015-Jul-25 13:32N 38°53' E 001°25'0 0.0
2015-Jul-25 12:25N 38°53' E 001°25'0 0.0
2015-Jul-25 11:20N 38°53' E 001°25'0 0.1
2015-Jul-25 10:26N 38°53' E 001°25'2 1.6
2015-Jul-25 09:28N 38°51' E 001°24'0 0.0
2015-Jul-25 08:33N 38°51' E 001°24'0 0.0
2015-Jul-25 07:33N 38°51' E 001°24'2 2.0
2015-Jul-25 06:29N 38°49' E 001°23'10 7.7
2015-Jul-25 05:12N 38°41' E 001°31'0 0.0
2015-Jul-25 02:33N 38°41' E 001°31'0 0.0
2015-Jul-25 01:32N 38°41' E 001°31'0 0.0
2015-Jul-25 00:32N 38°41' E 001°31'0 0.0
2015-Jul-24 23:33N 38°41' E 001°31'0 0.0
2015-Jul-24 22:32N 38°41' E 001°31'0 0.0
2015-Jul-24 21:33N 38°41' E 001°31'0 0.0
2015-Jul-24 20:32N 38°41' E 001°31'0 0.0
2015-Jul-24 19:33N 38°41' E 001°31'1 0.9
2015-Jul-24 18:30N 38°41' E 001°32'0 0.0
2015-Jul-24 17:18N 38°41' E 001°32'0 0.0
2015-Jul-24 16:29N 38°41' E 001°32'0 0.3
2015-Jul-24 15:33N 38°41' E 001°32'6 2.5
2015-Jul-24 13:09N 38°45' E 001°27'4 5.7
2015-Jul-24 12:30N 38°49' E 001°25'3 0.9
2015-Jul-24 09:07N 38°46' E 001°26'0 0.0
2015-Jul-24 08:28N 38°46' E 001°26'0 0.1
2015-Jul-24 07:33N 38°46' E 001°26'1 0.3
2015-Jul-24 04:29N 38°45' E 001°26'0 0.0
2015-Jul-24 03:11N 38°45' E 001°26'0 0.0
2015-Jul-24 02:14N 38°45' E 001°26'0 0.0
2015-Jul-24 01:26N 38°45' E 001°26'0 0.0
2015-Jul-24 00:26N 38°45' E 001°26'0 0.0
2015-Jul-23 23:32N 38°45' E 001°26'0 0.0
2015-Jul-23 20:20N 38°45' E 001°26'0 0.1
2015-Jul-23 19:33N 38°45' E 001°25'4 0.4
2015-Jul-23 09:32N 38°49' E 001°23'5 0.4
2015-Jul-22 18:26N 38°54' E 001°27'7 7.7
2015-Jul-22 17:32N 38°50' E 001°20'8 0.7
2015-Jul-22 06:27N 38°56' E 001°14'5 0.3
2015-Jul-21 14:15N 38°52' E 001°12'0 0.0
2015-Jul-21 13:33N 38°52' E 001°12'0 0.0
2015-Jul-21 12:33N 38°52' E 001°12'0 0.0
2015-Jul-21 11:31N 38°52' E 001°12'13 1.6
2015-Jul-21 03:24N 38°51' E 001°28'910.1
2015-Jul-21 02:33N 38°57' E 001°35'1010.2
2015-Jul-21 01:33N 39°05' E 001°44'1010.2
2015-Jul-21 00:33N 39°12' E 001°53'1010.1
2015-Jul-20 23:33N 39°20' E 002°02'1010.1
2015-Jul-20 22:33N 39°27' E 002°11'10 9.5
2015-Jul-20 21:32N 39°34' E 002°19'10 9.6
2015-Jul-20 20:30N 39°41' E 002°29'9 1.1
2015-Jul-20 12:33N 39°46' E 002°38'4 3.8
2015-Jul-20 11:32N 39°49' E 002°42'0 0.0
2015-Jul-20 10:32N 39°49' E 002°42'0 0.0
2015-Jul-20 09:23N 39°49' E 002°42'0 0.0
2015-Jul-20 08:32N 39°49' E 002°42'6 6.3
2015-Jul-20 07:32N 39°45' E 002°36'1111.1
2015-Jul-20 06:32N 39°38' E 002°24'  
Track history (hours):
 
Tides and Currents Weather Stations Pressure Air Temp Water Temp Dewpoint Dewpoint Depression Visibility Wind Speed Wind Dir Waves Ship Positions

Hana

Last reported at 2015-Jul-29 17:16 UTC. Time now 2015-Jul-30 20:13 UTC.
Position N 38°52' E 001°18'.

Length 42 m; draft 2.9 m.

Type: Pleasure craft. MMSI: 235065022.

Date/timePositionNaut miles runAvg speedWind from/ knotsBaromVisibWave heightAir tempDewpointWater temp
2015-Jul-29 17:16N 38°52' E 001°18'0 0.0
2015-Jul-29 16:17N 38°52' E 001°18'1 2.0
2015-Jul-29 15:32N 38°51' E 001°19'5 5.6
2015-Jul-29 14:33N 38°51' E 001°26'3 0.1
2015-Jul-27 19:18N 38°55' E 001°26'0 0.2
2015-Jul-27 18:32N 38°55' E 001°26'7 7.0
2015-Jul-27 17:33N 38°49' E 001°21'12 9.3
2015-Jul-27 16:16N 38°59' E 001°12'14 0.3
2015-Jul-25 15:31N 38°49' E 001°25'3 2.5
2015-Jul-25 14:11N 38°53' E 001°25'0 0.0
2015-Jul-25 13:32N 38°53' E 001°25'0 0.0
2015-Jul-25 12:25N 38°53' E 001°25'0 0.0
2015-Jul-25 11:20N 38°53' E 001°25'0 0.1
2015-Jul-25 10:26N 38°53' E 001°25'2 1.6
2015-Jul-25 09:28N 38°51' E 001°24'0 0.0
2015-Jul-25 08:33N 38°51' E 001°24'0 0.0
2015-Jul-25 07:33N 38°51' E 001°24'2 2.0
2015-Jul-25 06:29N 38°49' E 001°23'10 7.7
2015-Jul-25 05:12N 38°41' E 001°31'0 0.0
2015-Jul-25 02:33N 38°41' E 001°31'0 0.0
2015-Jul-25 01:32N 38°41' E 001°31'0 0.0
2015-Jul-25 00:32N 38°41' E 001°31'0 0.0
2015-Jul-24 23:33N 38°41' E 001°31'0 0.0
2015-Jul-24 22:32N 38°41' E 001°31'0 0.0
2015-Jul-24 21:33N 38°41' E 001°31'0 0.0
2015-Jul-24 20:32N 38°41' E 001°31'0 0.0
2015-Jul-24 19:33N 38°41' E 001°31'1 0.9
2015-Jul-24 18:30N 38°41' E 001°32'0 0.0
2015-Jul-24 17:18N 38°41' E 001°32'0 0.0
2015-Jul-24 16:29N 38°41' E 001°32'0 0.3
2015-Jul-24 15:33N 38°41' E 001°32'6 2.5
2015-Jul-24 13:09N 38°45' E 001°27'4 5.7
2015-Jul-24 12:30N 38°49' E 001°25'3 0.9
2015-Jul-24 09:07N 38°46' E 001°26'0 0.0
2015-Jul-24 08:28N 38°46' E 001°26'0 0.1
2015-Jul-24 07:33N 38°46' E 001°26'1 0.3
2015-Jul-24 04:29N 38°45' E 001°26'0 0.0
2015-Jul-24 03:11N 38°45' E 001°26'0 0.0
2015-Jul-24 02:14N 38°45' E 001°26'0 0.0
2015-Jul-24 01:26N 38°45' E 001°26'0 0.0
2015-Jul-24 00:26N 38°45' E 001°26'0 0.0
2015-Jul-23 23:32N 38°45' E 001°26'0 0.0
2015-Jul-23 20:20N 38°45' E 001°26'0 0.1
2015-Jul-23 19:33N 38°45' E 001°25'4 0.4
2015-Jul-23 09:32N 38°49' E 001°23'5 0.4
2015-Jul-22 18:26N 38°54' E 001°27'7 7.7
2015-Jul-22 17:32N 38°50' E 001°20'8 0.7
2015-Jul-22 06:27N 38°56' E 001°14'5 0.3
2015-Jul-21 14:15N 38°52' E 001°12'0 0.0
2015-Jul-21 13:33N 38°52' E 001°12'0 0.0
2015-Jul-21 12:33N 38°52' E 001°12'0 0.0
2015-Jul-21 11:31N 38°52' E 001°12'13 1.6
2015-Jul-21 03:24N 38°51' E 001°28'910.1
2015-Jul-21 02:33N 38°57' E 001°35'1010.2
2015-Jul-21 01:33N 39°05' E 001°44'1010.2
2015-Jul-21 00:33N 39°12' E 001°53'1010.1
2015-Jul-20 23:33N 39°20' E 002°02'1010.1
2015-Jul-20 22:33N 39°27' E 002°11'10 9.5
2015-Jul-20 21:32N 39°34' E 002°19'10 9.6
2015-Jul-20 20:30N 39°41' E 002°29'9 1.1
2015-Jul-20 12:33N 39°46' E 002°38'4 3.8
2015-Jul-20 11:32N 39°49' E 002°42'0 0.0
2015-Jul-20 10:32N 39°49' E 002°42'0 0.0
2015-Jul-20 09:23N 39°49' E 002°42'0 0.0
2015-Jul-20 08:32N 39°49' E 002°42'6 6.3
2015-Jul-20 07:32N 39°45' E 002°36'1111.1
2015-Jul-20 06:32N 39°38' E 002°24'  

Dump ship's entire track history